createdAt,value
2023-03-31T00:01:13.487Z,1.60
2023-03-31T00:03:44.941Z,1.30
2023-03-31T00:06:18.566Z,1.60
2023-03-31T00:08:52.374Z,1.50
2023-03-31T00:11:22.025Z,1.30
2023-03-31T00:13:49.109Z,1.70
2023-03-31T00:16:17.046Z,1.50
2023-03-31T00:18:47.794Z,1.70
2023-03-31T00:21:30.113Z,1.60
2023-03-31T00:24:01.168Z,1.60
2023-03-31T00:26:29.734Z,1.60
2023-03-31T00:28:58.606Z,1.50
2023-03-31T00:31:27.591Z,1.70
2023-03-31T00:33:58.730Z,1.50
2023-03-31T00:36:27.728Z,1.50
2023-03-31T00:39:00.355Z,1.60
2023-03-31T00:41:29.032Z,1.50
2023-03-31T00:44:19.141Z,1.50
2023-03-31T00:47:18.532Z,1.60
2023-03-31T00:49:49.680Z,1.57
2023-03-31T00:52:37.515Z,1.60
2023-03-31T00:55:27.630Z,1.53
2023-03-31T00:57:58.881Z,1.70
2023-03-31T01:00:28.546Z,1.67
2023-03-31T01:03:02.291Z,1.50
2023-03-31T01:05:36.692Z,1.60
2023-03-31T01:08:08.142Z,1.60
2023-03-31T01:10:42.961Z,1.70
2023-03-31T01:13:15.356Z,1.80
2023-03-31T01:15:43.875Z,1.73
2023-03-31T01:18:14.779Z,2.13
2023-03-31T01:21:19.060Z,1.80
2023-03-31T01:24:24.228Z,1.60
2023-03-31T01:27:33.907Z,1.80
2023-03-31T01:30:35.529Z,1.90
2023-03-31T01:33:43.654Z,1.90
2023-03-31T01:36:19.921Z,2.00
2023-03-31T01:38:53.056Z,1.90
2023-03-31T01:41:58.324Z,2.23
2023-03-31T01:44:44.903Z,1.97
2023-03-31T01:47:40.963Z,2.20
2023-03-31T01:50:18.805Z,1.87
2023-03-31T01:52:58.979Z,2.10
2023-03-31T01:55:36.266Z,2.10
2023-03-31T01:58:13.630Z,2.20
2023-03-31T02:00:52.045Z,2.53
2023-03-31T02:03:29.988Z,2.53
2023-03-31T02:06:01.804Z,2.70
2023-03-31T02:08:43.677Z,2.57
2023-03-31T02:11:11.163Z,2.47
2023-03-31T02:13:44.950Z,2.33
2023-03-31T02:16:19.403Z,2.87
2023-03-31T02:18:50.216Z,2.80
2023-03-31T02:21:19.429Z,2.70
2023-03-31T02:23:49.594Z,2.70
2023-03-31T02:26:27.495Z,2.90
2023-03-31T02:28:58.405Z,4.03
2023-03-31T02:31:48.332Z,3.70
2023-03-31T02:34:16.209Z,2.63
2023-03-31T02:36:45.755Z,2.83
2023-03-31T02:39:23.619Z,2.70
2023-03-31T02:41:53.336Z,2.93
2023-03-31T02:44:21.258Z,2.83
2023-03-31T02:46:50.495Z,3.00
2023-03-31T02:49:19.222Z,2.83
2023-03-31T02:52:24.688Z,2.93
2023-03-31T02:55:26.102Z,3.00
2023-03-31T02:58:45.534Z,3.47
2023-03-31T03:01:36.497Z,3.20
2023-03-31T03:04:29.882Z,3.00
2023-03-31T03:07:24.994Z,3.00
2023-03-31T03:10:28.858Z,3.10
2023-03-31T03:13:17.708Z,3.10
2023-03-31T03:16:01.327Z,3.50
2023-03-31T03:18:31.908Z,3.40
2023-03-31T03:20:59.074Z,3.50
2023-03-31T03:23:26.519Z,3.37
2023-03-31T03:25:54.499Z,3.60
2023-03-31T03:28:23.180Z,3.30
2023-03-31T03:30:51.432Z,3.00
2023-03-31T03:33:19.798Z,3.20
2023-03-31T03:35:46.907Z,3.00
2023-03-31T03:38:15.305Z,3.00
2023-03-31T03:40:44.840Z,3.00
2023-03-31T03:43:15.459Z,3.47
2023-03-31T03:45:47.691Z,2.93
2023-03-31T03:48:15.204Z,2.83
2023-03-31T03:50:44.619Z,3.30
2023-03-31T03:53:14.933Z,3.10
2023-03-31T03:55:41.894Z,3.33
2023-03-31T03:58:10.277Z,3.00
2023-03-31T04:00:37.455Z,3.10
2023-03-31T04:03:05.092Z,3.30
2023-03-31T04:05:32.038Z,3.27
2023-03-31T04:08:00.483Z,3.43
2023-03-31T04:10:27.441Z,3.17
2023-03-31T04:12:55.729Z,3.10
2023-03-31T04:15:22.706Z,3.40
2023-03-31T04:17:54.847Z,3.20
2023-03-31T04:20:30.059Z,3.30
2023-03-31T04:23:00.588Z,3.70
2023-03-31T04:25:31.241Z,3.50
2023-03-31T04:28:00.658Z,3.60
2023-03-31T04:30:32.299Z,3.70
2023-03-31T04:33:02.785Z,3.67
2023-03-31T04:35:45.285Z,3.60
2023-03-31T04:38:15.674Z,3.60
2023-03-31T04:40:45.663Z,3.60
2023-03-31T04:43:14.394Z,3.50
2023-03-31T04:45:42.790Z,4.20
2023-03-31T04:48:10.638Z,3.53
2023-03-31T04:50:40.329Z,4.00
2023-03-31T04:53:08.115Z,4.07
2023-03-31T04:55:36.392Z,4.20
2023-03-31T04:58:04.153Z,3.90
2023-03-31T05:00:32.010Z,4.10
2023-03-31T05:02:59.884Z,3.83
2023-03-31T05:05:27.246Z,3.80
2023-03-31T05:07:56.530Z,4.20
2023-03-31T05:10:24.255Z,4.33
2023-03-31T05:12:55.081Z,5.30
2023-03-31T05:15:24.792Z,5.10
2023-03-31T05:17:53.953Z,5.00
2023-03-31T05:20:21.101Z,4.50
2023-03-31T05:22:49.274Z,4.80
2023-03-31T05:25:18.779Z,5.03
2023-03-31T05:27:47.565Z,6.47
2023-03-31T05:30:15.846Z,5.47
2023-03-31T05:32:43.201Z,4.70
2023-03-31T05:35:11.342Z,5.37
2023-03-31T05:37:39.754Z,6.00
2023-03-31T05:40:09.625Z,7.47
2023-03-31T05:42:38.610Z,8.43
2023-03-31T05:45:09.370Z,9.27
2023-03-31T05:47:37.905Z,10.33
2023-03-31T05:50:08.235Z,11.07
2023-03-31T05:52:36.772Z,10.03
2023-03-31T05:55:05.209Z,7.50
2023-03-31T05:57:33.164Z,7.00
2023-03-31T06:00:01.116Z,6.30
2023-03-31T06:02:31.524Z,5.97
2023-03-31T06:05:01.112Z,5.33
2023-03-31T06:07:28.536Z,4.90
2023-03-31T06:09:56.047Z,5.20
2023-03-31T06:12:23.149Z,5.20
2023-03-31T06:14:51.514Z,5.10
2023-03-31T06:17:19.058Z,5.03
2023-03-31T06:19:47.069Z,5.30
2023-03-31T06:22:15.174Z,5.20
2023-03-31T06:24:43.029Z,5.00
2023-03-31T06:27:10.468Z,4.90
2023-03-31T06:29:38.807Z,5.20
2023-03-31T06:32:06.093Z,5.40
2023-03-31T06:34:34.262Z,5.40
2023-03-31T06:37:02.309Z,5.43
2023-03-31T06:39:31.868Z,5.00
2023-03-31T06:41:58.877Z,5.60
2023-03-31T06:44:28.466Z,5.40
2023-03-31T06:46:57.322Z,5.27
2023-03-31T06:49:24.354Z,5.73
2023-03-31T06:51:52.677Z,4.93
2023-03-31T06:54:20.011Z,5.10
2023-03-31T06:56:47.029Z,4.93
2023-03-31T06:59:16.644Z,4.93
2023-03-31T07:01:46.590Z,4.97
2023-03-31T07:04:13.523Z,5.10
2023-03-31T07:06:42.082Z,4.90
2023-03-31T07:09:11.517Z,5.10
2023-03-31T07:11:39.927Z,4.90
2023-03-31T07:14:07.210Z,4.93
2023-03-31T07:16:36.361Z,4.70
2023-03-31T07:19:04.426Z,4.70
2023-03-31T07:21:32.548Z,4.40
2023-03-31T07:24:00.713Z,4.50
2023-03-31T07:26:28.166Z,4.70
2023-03-31T07:28:57.492Z,4.80
2023-03-31T07:31:25.969Z,4.40
2023-03-31T07:33:53.054Z,4.70
2023-03-31T07:36:21.826Z,4.30
2023-03-31T07:38:50.792Z,4.30
2023-03-31T07:41:20.594Z,4.63
2023-03-31T07:43:50.434Z,4.40
2023-03-31T07:46:18.934Z,4.40
2023-03-31T07:48:48.014Z,4.47
2023-03-31T07:51:17.789Z,4.57
2023-03-31T07:53:47.324Z,4.50
2023-03-31T07:56:16.817Z,4.40
2023-03-31T07:58:46.082Z,4.53
2023-03-31T08:01:17.202Z,4.13
2023-03-31T08:03:47.548Z,4.50
2023-03-31T08:06:20.776Z,4.30
2023-03-31T08:08:51.758Z,4.73
2023-03-31T08:11:21.349Z,5.23
2023-03-31T08:13:50.113Z,5.27
2023-03-31T08:16:18.045Z,5.10
2023-03-31T08:18:46.312Z,5.13
2023-03-31T08:21:17.035Z,5.87
2023-03-31T08:23:46.431Z,5.30
2023-03-31T08:26:18.474Z,5.33
2023-03-31T08:28:49.127Z,5.63
2023-03-31T08:31:19.511Z,5.50
2023-03-31T08:33:47.649Z,5.17
2023-03-31T08:36:16.524Z,4.70
2023-03-31T08:38:49.713Z,4.80
2023-03-31T08:41:46.265Z,4.40
2023-03-31T08:44:20.567Z,4.53
2023-03-31T08:46:52.228Z,4.50
2023-03-31T08:49:22.840Z,4.23
2023-03-31T08:52:02.892Z,4.00
2023-03-31T08:54:50.736Z,3.80
2023-03-31T08:57:24.502Z,3.97
2023-03-31T08:59:53.049Z,4.20
2023-03-31T09:02:42.642Z,4.37
2023-03-31T09:05:45.929Z,5.10
2023-03-31T09:08:37.929Z,5.80
2023-03-31T09:11:34.102Z,8.47
2023-03-31T09:14:54.508Z,8.03
2023-03-31T09:17:47.293Z,7.67
2023-03-31T09:20:28.319Z,10.83
2023-03-31T09:23:18.614Z,8.27
2023-03-31T09:25:47.446Z,10.23
2023-03-31T09:28:33.203Z,9.03
2023-03-31T09:31:05.462Z,16.87
2023-03-31T09:33:33.159Z,7.03
2023-03-31T09:38:43.836Z,10.20
2023-03-31T09:41:12.962Z,6.20
2023-03-31T09:43:41.761Z,6.03
2023-03-31T09:46:31.703Z,6.40
2023-03-31T09:49:07.844Z,5.63
2023-03-31T09:51:38.027Z,6.77
2023-03-31T09:54:16.082Z,7.97
2023-03-31T09:56:53.375Z,7.10
2023-03-31T09:59:34.411Z,5.27
2023-03-31T10:02:05.779Z,4.73
2023-03-31T10:04:35.658Z,5.17
2023-03-31T10:07:05.612Z,4.60
2023-03-31T10:09:37.721Z,4.07
2023-03-31T10:12:32.659Z,4.60
2023-03-31T10:15:19.171Z,4.23
2023-03-31T10:20:41.453Z,4.10
2023-03-31T10:23:31.171Z,4.40
2023-03-31T10:26:02.746Z,4.30
2023-03-31T10:28:37.747Z,4.37
2023-03-31T10:31:09.983Z,4.30
2023-03-31T10:33:47.473Z,5.63
2023-03-31T10:36:25.040Z,4.40
2023-03-31T10:38:56.032Z,4.50
2023-03-31T10:41:34.101Z,4.57
2023-03-31T10:44:04.456Z,4.70
2023-03-31T10:46:52.934Z,4.80
2023-03-31T10:49:39.709Z,4.50
2023-03-31T10:52:30.181Z,5.20
2023-03-31T10:55:04.615Z,4.77
2023-03-31T10:58:06.998Z,5.10
2023-03-31T11:01:09.255Z,5.87
2023-03-31T11:03:37.064Z,5.20
2023-03-31T11:06:20.464Z,5.13
2023-03-31T11:08:53.920Z,6.23
2023-03-31T11:11:42.432Z,7.40
2023-03-31T11:14:49.705Z,9.97
2023-03-31T11:18:01.142Z,8.27
2023-03-31T11:21:12.458Z,8.63
2023-03-31T11:24:03.429Z,7.30
2023-03-31T11:27:12.647Z,9.07
2023-03-31T11:30:18.217Z,6.90
2023-03-31T11:33:07.736Z,6.77
2023-03-31T11:36:18.270Z,6.83
2023-03-31T11:39:13.221Z,6.03
2023-03-31T11:41:55.147Z,5.77
2023-03-31T11:44:25.120Z,5.27
2023-03-31T11:47:03.518Z,5.07
2023-03-31T11:49:48.440Z,5.03
2023-03-31T11:52:21.892Z,4.70
2023-03-31T11:55:09.589Z,4.20
2023-03-31T11:58:02.594Z,3.70
2023-03-31T12:01:00.657Z,3.50
2023-03-31T12:03:53.004Z,3.30
2023-03-31T12:06:26.727Z,3.17
2023-03-31T12:09:35.102Z,4.00
2023-03-31T12:12:33.728Z,4.10
2023-03-31T12:15:47.037Z,3.60
2023-03-31T12:18:38.163Z,4.20
2023-03-31T12:21:11.705Z,4.13
2023-03-31T12:23:49.306Z,4.00
2023-03-31T12:26:53.599Z,3.73
2023-03-31T12:29:42.856Z,4.03
2023-03-31T12:32:36.615Z,3.70
2023-03-31T12:35:31.789Z,4.23
2023-03-31T12:38:24.432Z,3.70
2023-03-31T12:41:18.149Z,3.90
2023-03-31T12:44:06.124Z,3.27
2023-03-31T12:46:34.415Z,3.63
2023-03-31T12:49:24.985Z,3.53
2023-03-31T12:52:18.221Z,3.10
2023-03-31T12:55:21.709Z,3.70
2023-03-31T12:57:50.094Z,3.50
2023-03-31T13:00:36.978Z,3.20
2023-03-31T13:03:42.991Z,3.17
2023-03-31T13:06:48.934Z,3.03
2023-03-31T13:09:21.560Z,2.93
2023-03-31T13:15:36.737Z,2.97
2023-03-31T13:18:10.081Z,3.50
2023-03-31T13:20:45.138Z,3.30
2023-03-31T13:23:41.275Z,2.90
2023-03-31T13:26:48.139Z,2.97
2023-03-31T13:29:16.701Z,2.87
2023-03-31T13:32:04.821Z,3.93
2023-03-31T13:34:42.176Z,3.57
2023-03-31T13:37:24.058Z,3.00
2023-03-31T13:44:21.183Z,2.57
2023-03-31T13:47:10.267Z,2.70
2023-03-31T13:50:20.649Z,2.83
2023-03-31T13:52:56.572Z,3.20
2023-03-31T13:55:52.723Z,3.20
2023-03-31T13:58:40.694Z,3.00
2023-03-31T14:01:49.202Z,3.27
2023-03-31T14:13:20.385Z,2.63
2023-03-31T14:16:01.376Z,3.40
2023-03-31T14:18:45.699Z,3.33
2023-03-31T14:21:38.005Z,4.73
2023-03-31T14:27:06.248Z,3.20
2023-03-31T14:29:58.121Z,3.20
2023-03-31T14:32:39.803Z,3.00
2023-03-31T14:35:45.186Z,3.00
2023-03-31T14:38:21.021Z,3.00
2023-03-31T14:40:54.606Z,3.37
2023-03-31T14:43:28.383Z,3.17
2023-03-31T14:46:06.254Z,3.40
2023-03-31T14:48:45.750Z,3.50
2023-03-31T14:51:19.057Z,3.60
2023-03-31T14:53:46.176Z,3.73
2023-03-31T14:56:21.734Z,3.50
2023-03-31T14:58:52.763Z,3.40
2023-03-31T15:01:26.367Z,3.67
2023-03-31T15:03:54.814Z,3.30
2023-03-31T15:06:28.738Z,3.70
2023-03-31T15:08:58.233Z,3.03
2023-03-31T15:11:29.154Z,3.00
2023-03-31T15:14:05.197Z,2.80
2023-03-31T15:16:42.145Z,2.60
2023-03-31T15:19:22.931Z,2.60
2023-03-31T15:22:02.863Z,2.30
2023-03-31T15:24:33.833Z,2.10
2023-03-31T15:27:10.137Z,2.00
2023-03-31T15:29:47.871Z,1.57
2023-03-31T15:32:34.021Z,1.67
2023-03-31T15:37:55.191Z,1.70
2023-03-31T15:40:28.619Z,1.60
2023-03-31T15:43:24.472Z,1.63
2023-03-31T15:46:00.439Z,1.70
2023-03-31T15:48:34.472Z,2.00
2023-03-31T15:51:07.240Z,1.90
2023-03-31T15:53:51.340Z,1.70
2023-03-31T15:56:45.431Z,2.33
2023-03-31T15:59:22.447Z,2.13
2023-03-31T16:01:51.328Z,2.80
2023-03-31T16:04:18.551Z,2.80
2023-03-31T16:07:01.187Z,3.00
2023-03-31T16:09:48.253Z,5.20
2023-03-31T16:12:26.151Z,7.87
2023-03-31T16:14:59.501Z,6.27
2023-03-31T16:17:35.092Z,5.10
2023-03-31T16:20:20.045Z,3.67
2023-03-31T16:22:54.433Z,3.47
2023-03-31T16:25:24.883Z,2.57
2023-03-31T16:27:56.190Z,2.70
2023-03-31T16:30:35.132Z,2.50
2023-03-31T16:33:04.246Z,2.10
2023-03-31T16:35:37.084Z,1.97
2023-03-31T16:38:06.298Z,2.00
2023-03-31T16:40:42.202Z,2.30
2023-03-31T16:43:18.043Z,1.87
2023-03-31T16:45:47.917Z,2.20
2023-03-31T16:48:19.050Z,2.40
2023-03-31T16:50:48.328Z,2.30
2023-03-31T16:53:17.671Z,2.20
2023-03-31T16:55:45.076Z,2.57
2023-03-31T16:58:13.848Z,2.90
2023-03-31T17:00:46.214Z,4.37
2023-03-31T17:03:15.720Z,5.63
2023-03-31T17:05:48.788Z,5.40
2023-03-31T17:08:16.966Z,5.03
2023-03-31T17:10:52.248Z,4.00
2023-03-31T17:13:20.975Z,5.50
2023-03-31T17:15:50.572Z,7.90
2023-03-31T17:18:20.479Z,5.20
2023-03-31T17:20:49.188Z,7.27
2023-03-31T17:23:17.816Z,6.77
2023-03-31T17:25:53.206Z,7.83
2023-03-31T17:28:20.581Z,7.60
2023-03-31T17:30:50.893Z,10.47
2023-03-31T17:33:18.556Z,10.50
2023-03-31T17:35:47.268Z,8.90
2023-03-31T17:38:16.102Z,6.40
2023-03-31T17:40:44.194Z,5.30
2023-03-31T17:43:12.676Z,4.20
2023-03-31T17:45:40.230Z,2.90
2023-03-31T17:48:09.723Z,3.00
2023-03-31T17:50:38.196Z,2.40
2023-03-31T17:53:09.532Z,2.37
2023-03-31T17:55:41.250Z,2.53
2023-03-31T17:58:13.820Z,2.33
2023-03-31T18:00:41.411Z,2.60
2023-03-31T18:03:11.317Z,2.33
2023-03-31T18:05:41.188Z,1.90
2023-03-31T18:08:08.916Z,2.20
2023-03-31T18:10:37.378Z,2.33
2023-03-31T18:13:06.008Z,2.40
2023-03-31T18:15:33.841Z,2.17
2023-03-31T18:18:04.806Z,2.30
2023-03-31T18:20:32.673Z,2.00
2023-03-31T18:23:00.861Z,1.83
2023-03-31T18:25:28.625Z,1.93
2023-03-31T18:27:57.719Z,2.07
2023-03-31T18:30:26.257Z,2.50
2023-03-31T18:32:54.224Z,2.33
2023-03-31T18:35:23.453Z,2.53
2023-03-31T18:37:54.677Z,2.90
2023-03-31T18:40:24.375Z,2.63
2023-03-31T18:42:54.514Z,2.67
2023-03-31T18:45:22.772Z,2.70
2023-03-31T18:47:51.004Z,2.80
2023-03-31T18:50:21.395Z,2.60
2023-03-31T18:52:52.220Z,2.43
2023-03-31T18:55:21.279Z,2.53
2023-03-31T18:57:50.055Z,2.20
2023-03-31T19:00:19.415Z,2.47
2023-03-31T19:02:48.023Z,2.20
2023-03-31T19:05:18.373Z,2.03
2023-03-31T19:07:47.232Z,2.23
2023-03-31T19:10:15.451Z,2.20
2023-03-31T19:12:48.182Z,2.13
2023-03-31T19:15:18.419Z,2.10
2023-03-31T19:17:47.191Z,2.30
2023-03-31T19:20:17.986Z,2.40
2023-03-31T19:22:54.806Z,2.30
2023-03-31T19:25:23.131Z,2.20
2023-03-31T19:27:52.217Z,2.37
2023-03-31T19:30:23.243Z,2.40
2023-03-31T19:32:53.408Z,2.20
2023-03-31T19:35:22.823Z,2.30
2023-03-31T19:37:53.092Z,2.50
2023-03-31T19:40:21.244Z,2.20
2023-03-31T19:42:49.232Z,2.20
2023-03-31T19:45:17.505Z,2.53
2023-03-31T19:47:49.740Z,2.50
2023-03-31T19:50:18.135Z,2.30
2023-03-31T19:52:49.728Z,2.47
2023-03-31T19:55:17.507Z,2.40
2023-03-31T19:57:45.528Z,2.33
2023-03-31T20:00:14.011Z,2.40
2023-03-31T20:02:42.644Z,2.10
2023-03-31T20:05:11.053Z,2.30
2023-03-31T20:07:40.038Z,2.30
2023-03-31T20:10:16.158Z,2.40
2023-03-31T20:12:46.785Z,2.30
2023-03-31T20:15:14.901Z,2.10
2023-03-31T20:17:45.986Z,2.30
2023-03-31T20:20:13.439Z,2.23
2023-03-31T20:22:41.882Z,2.10
2023-03-31T20:25:09.697Z,1.83
2023-03-31T20:27:37.626Z,1.90
2023-03-31T20:30:05.786Z,1.83
2023-03-31T20:32:34.490Z,1.97
2023-03-31T20:35:02.629Z,1.93
2023-03-31T20:37:30.525Z,2.03
2023-03-31T20:39:58.516Z,1.83
2023-03-31T20:42:28.134Z,2.00
2023-03-31T20:44:56.259Z,1.60
2023-03-31T20:47:25.027Z,1.70
2023-03-31T20:49:53.667Z,1.70
2023-03-31T20:52:23.208Z,1.50
2023-03-31T20:54:51.554Z,1.73
2023-03-31T20:57:20.334Z,1.73
2023-03-31T20:59:47.719Z,1.80
2023-03-31T21:02:15.465Z,1.80
2023-03-31T21:04:44.027Z,1.70
2023-03-31T21:07:11.161Z,1.60
2023-03-31T21:09:38.266Z,1.70
2023-03-31T21:12:05.406Z,1.90
2023-03-31T21:14:34.175Z,1.50
2023-03-31T21:17:01.319Z,1.60
2023-03-31T21:19:28.822Z,1.50
2023-03-31T21:21:55.919Z,1.60
2023-03-31T21:24:23.226Z,1.50
2023-03-31T21:26:52.397Z,1.77
2023-03-31T21:29:19.718Z,1.63
2023-03-31T21:31:47.299Z,1.80
2023-03-31T21:34:14.441Z,1.50
2023-03-31T21:36:41.617Z,1.70
2023-03-31T21:39:10.151Z,1.70
2023-03-31T21:41:39.773Z,1.60
2023-03-31T21:44:09.018Z,1.67
2023-03-31T21:46:37.576Z,1.60
2023-03-31T21:49:04.611Z,1.70
2023-03-31T21:51:31.853Z,1.40
2023-03-31T21:53:58.856Z,1.73
2023-03-31T21:56:28.458Z,1.60
2023-03-31T21:58:59.576Z,1.73
2023-03-31T22:01:26.819Z,1.60
2023-03-31T22:03:53.939Z,1.70
2023-03-31T22:06:22.379Z,1.57
2023-03-31T22:08:49.883Z,1.67
2023-03-31T22:11:17.162Z,1.50
2023-03-31T22:13:44.425Z,1.40
2023-03-31T22:16:20.758Z,1.10
2023-03-31T22:18:50.350Z,0.90
2023-03-31T22:21:23.625Z,1.10
2023-03-31T22:23:52.673Z,1.00
2023-03-31T22:26:20.237Z,1.20
2023-03-31T22:28:47.740Z,1.10
2023-03-31T22:31:16.159Z,1.00
2023-03-31T22:33:44.504Z,0.80
2023-03-31T22:36:11.794Z,0.90
2023-03-31T22:38:38.962Z,0.83
2023-03-31T22:41:06.809Z,0.90
2023-03-31T22:43:34.367Z,0.90
2023-03-31T22:46:08.272Z,0.70
2023-03-31T22:48:35.834Z,0.77
2023-03-31T22:51:05.798Z,0.90
2023-03-31T22:53:33.795Z,1.00
2023-03-31T22:56:10.637Z,0.93
2023-03-31T22:58:38.520Z,1.10
2023-03-31T23:01:07.104Z,1.00
2023-03-31T23:03:34.751Z,0.90
2023-03-31T23:06:05.671Z,1.10
2023-03-31T23:08:35.806Z,1.00
2023-03-31T23:11:05.018Z,1.13
2023-03-31T23:13:32.424Z,0.90
2023-03-31T23:16:07.057Z,1.08
2023-03-31T23:18:34.686Z,1.10
2023-03-31T23:21:05.787Z,1.10
2023-03-31T23:23:33.325Z,1.23
2023-03-31T23:26:01.848Z,1.00
2023-03-31T23:28:28.901Z,1.20
2023-03-31T23:30:59.633Z,1.00
2023-03-31T23:33:28.262Z,1.00
2023-03-31T23:36:03.448Z,1.10
2023-03-31T23:38:33.112Z,1.10
2023-03-31T23:41:01.633Z,1.03
2023-03-31T23:43:30.207Z,0.90
2023-03-31T23:45:57.597Z,0.93
2023-03-31T23:48:25.058Z,1.00
2023-03-31T23:50:52.188Z,1.10
2023-03-31T23:53:19.221Z,1.20
2023-03-31T23:55:54.055Z,1.07
2023-03-31T23:58:22.280Z,0.93
